CLT TRACON Summary / KCLT TAF
CLT TRACON Summary:
High pressure will weaken as a cold front moves across the airspace tonight. A weak upper-level system will increase chances for light showers over north GA/NC/SC through early morning. Expect VFR conditions over the CLT TRACON. Surface winds will be from the southwest to west at 3-5kts. No significant flight hazards are expected in the TRACON airspace.

Updated:10/20/2014 7:58 PM
CLT Terminal Aerodrome Forecast:

FTUS42 KGSP 202300
TAFCLT
TAF
KCLT 202332Z 2100/2124 20003KT P6SM SCT160 BKN250
     FM210800 28003KT P6SM SCT250
     FM211600 28008KT P6SM FEW250
     FM212100 31008KT P6SM SCT050=
CLT TRACON Area Remark:
NONE.
Convective Gate Forecast / Collaborative Convective Forecast Product / Vertical Wind Profile
Convective Gate Forecast
-->
AIRMETs & SIGMETS/ Southeast Radar loop / Satellite Image (click on image to enlarge)

Southeast Radar Loop

 



USA.gov is the U.S. government's official web portal to all federal, state and local government web resources and services.